sensor_id;sensor_type;location;lat;lon;timestamp;P1;durP1;ratioP1;P2;durP2;ratioP2
6902;SDS011;20232;49.408;8.702;2024-02-15T05:01:47;8.93;;;5.93;;
6902;SDS011;20232;49.408;8.702;2024-02-15T05:04:14;6.63;;;6.03;;
6902;SDS011;20232;49.408;8.702;2024-02-15T05:06:40;10.97;;;6.80;;
6902;SDS011;20232;49.408;8.702;2024-02-15T05:09:05;7.60;;;6.20;;
6902;SDS011;20232;49.408;8.702;2024-02-15T05:11:36;6.90;;;5.47;;
6902;SDS011;20232;49.408;8.702;2024-02-15T05:14:03;9.13;;;6.90;;
6902;SDS011;20232;49.408;8.702;2024-02-15T05:16:31;8.03;;;6.43;;
6902;SDS011;20232;49.408;8.702;2024-02-15T05:19:00;7.40;;;6.27;;
6902;SDS011;20232;49.408;8.702;2024-02-15T05:21:25;7.53;;;5.87;;
6902;SDS011;20232;49.408;8.702;2024-02-15T05:23:51;6.90;;;6.20;;
6902;SDS011;20232;49.408;8.702;2024-02-15T05:26:18;7.60;;;6.60;;
6902;SDS011;20232;49.408;8.702;2024-02-15T05:28:48;10.47;;;7.60;;
6902;SDS011;20232;49.408;8.702;2024-02-15T05:31:17;6.87;;;6.00;;
6902;SDS011;20232;49.408;8.702;2024-02-15T05:33:45;7.77;;;6.53;;
6902;SDS011;20232;49.408;8.702;2024-02-15T05:36:12;9.07;;;6.10;;
6902;SDS011;20232;49.408;8.702;2024-02-15T05:38:39;6.80;;;5.47;;
6902;SDS011;20232;49.408;8.702;2024-02-15T05:41:05;8.57;;;5.83;;
6902;SDS011;20232;49.408;8.702;2024-02-15T05:43:32;9.03;;;6.13;;
6902;SDS011;20232;49.408;8.702;2024-02-15T05:45:58;7.83;;;5.50;;
6902;SDS011;20232;49.408;8.702;2024-02-15T05:48:25;9.83;;;6.30;;
6902;SDS011;20232;49.408;8.702;2024-02-15T05:50:51;8.47;;;5.47;;
6902;SDS011;20232;49.408;8.702;2024-02-15T05:53:19;8.33;;;5.90;;
6902;SDS011;20232;49.408;8.702;2024-02-15T05:55:44;7.30;;;5.83;;
6902;SDS011;20232;49.408;8.702;2024-02-15T05:58:10;9.57;;;6.10;;
6902;SDS011;20232;49.408;8.702;2024-02-15T06:00:37;7.10;;;6.40;;
6902;SDS011;20232;49.408;8.702;2024-02-15T06:03:04;8.83;;;6.43;;
6902;SDS011;20232;49.408;8.702;2024-02-15T06:05:31;11.20;;;6.30;;
6902;SDS011;20232;49.408;8.702;2024-02-15T06:07:57;7.33;;;5.50;;
6902;SDS011;20232;49.408;8.702;2024-02-15T06:10:24;7.67;;;5.37;;
6902;SDS011;20232;49.408;8.702;2024-02-15T06:12:50;6.40;;;5.67;;
6902;SDS011;20232;49.408;8.702;2024-02-15T06:15:16;7.47;;;5.77;;
6902;SDS011;20232;49.408;8.702;2024-02-15T06:17:41;7.70;;;5.67;;
6902;SDS011;20232;49.408;8.702;2024-02-15T06:20:11;7.50;;;5.33;;
6902;SDS011;20232;49.408;8.702;2024-02-15T06:22:39;8.23;;;5.97;;
6902;SDS011;20232;49.408;8.702;2024-02-15T06:25:05;8.23;;;5.83;;
6902;SDS011;20232;49.408;8.702;2024-02-15T06:27:31;7.00;;;5.07;;
6902;SDS011;20232;49.408;8.702;2024-02-15T06:29:57;7.77;;;5.00;;
6902;SDS011;20232;49.408;8.702;2024-02-15T06:32:42;6.33;;;5.20;;
6902;SDS011;20232;49.408;8.702;2024-02-15T06:35:26;10.03;;;6.17;;
6902;SDS011;20232;49.408;8.702;2024-02-15T06:38:10;8.57;;;5.13;;
6902;SDS011;20232;49.408;8.702;2024-02-15T06:40:54;7.43;;;5.93;;
6902;SDS011;20232;49.408;8.702;2024-02-15T06:43:19;9.30;;;6.20;;
6902;SDS011;20232;49.408;8.702;2024-02-15T06:45:44;8.00;;;6.37;;
6902;SDS011;20232;49.408;8.702;2024-02-15T06:48:12;11.47;;;6.73;;
6902;SDS011;20232;49.408;8.702;2024-02-15T06:50:38;6.53;;;5.80;;
6902;SDS011;20232;49.408;8.702;2024-02-15T06:53:04;7.43;;;5.90;;
6902;SDS011;20232;49.408;8.702;2024-02-15T06:55:30;11.17;;;6.87;;
6902;SDS011;20232;49.408;8.702;2024-02-15T06:57:55;7.57;;;6.17;;
6902;SDS011;20232;49.408;8.702;2024-02-15T07:00:21;10.13;;;6.53;;
6902;SDS011;20232;49.408;8.702;2024-02-15T07:02:46;12.77;;;7.67;;
6902;SDS011;20232;49.408;8.702;2024-02-15T07:05:13;11.23;;;7.83;;
6902;SDS011;20232;49.408;8.702;2024-02-15T07:07:39;10.10;;;7.10;;
6902;SDS011;20232;49.408;8.702;2024-02-15T07:10:05;8.83;;;6.73;;
6902;SDS011;20232;49.408;8.702;2024-02-15T07:12:31;11.33;;;6.57;;
6902;SDS011;20232;49.408;8.702;2024-02-15T07:14:57;7.50;;;6.37;;
6902;SDS011;20232;49.408;8.702;2024-02-15T07:17:23;8.03;;;5.60;;
6902;SDS011;20232;49.408;8.702;2024-02-15T07:19:48;5.87;;;5.27;;
6902;SDS011;20232;49.408;8.702;2024-02-15T07:22:16;7.67;;;6.37;;
6902;SDS011;20232;49.408;8.702;2024-02-15T07:24:42;9.63;;;5.90;;
6902;SDS011;20232;49.408;8.702;2024-02-15T07:27:07;6.63;;;5.53;;
6902;SDS011;20232;49.408;8.702;2024-02-15T07:29:33;8.27;;;5.40;;
6902;SDS011;20232;49.408;8.702;2024-02-15T07:32:02;7.70;;;5.40;;
6902;SDS011;20232;49.408;8.702;2024-02-15T07:34:31;7.73;;;5.90;;
6902;SDS011;20232;49.408;8.702;2024-02-15T07:36:57;5.57;;;4.97;;
6902;SDS011;20232;49.408;8.702;2024-02-15T07:39:23;6.40;;;5.60;;
6902;SDS011;20232;49.408;8.702;2024-02-15T07:41:50;8.13;;;5.37;;
6902;SDS011;20232;49.408;8.702;2024-02-15T07:44:19;7.13;;;5.77;;
6902;SDS011;20232;49.408;8.702;2024-02-15T07:46:45;7.07;;;4.90;;
6902;SDS011;20232;49.408;8.702;2024-02-15T07:49:11;7.47;;;5.13;;
6902;SDS011;20232;49.408;8.702;2024-02-15T07:51:36;8.50;;;6.10;;
6902;SDS011;20232;49.408;8.702;2024-02-15T07:54:02;7.53;;;5.57;;
6902;SDS011;20232;49.408;8.702;2024-02-15T07:56:28;6.07;;;5.43;;
6902;SDS011;20232;49.408;8.702;2024-02-15T07:58:53;7.60;;;5.33;;
6902;SDS011;20232;49.408;8.702;2024-02-15T08:01:19;7.53;;;6.00;;
6902;SDS011;20232;49.408;8.702;2024-02-15T08:03:48;7.57;;;6.20;;
6902;SDS011;20232;49.408;8.702;2024-02-15T08:06:14;9.33;;;6.67;;
6902;SDS011;20232;49.408;8.702;2024-02-15T08:08:41;8.40;;;6.13;;
6902;SDS011;20232;49.408;8.702;2024-02-15T08:11:07;8.30;;;6.00;;
6902;SDS011;20232;49.408;8.702;2024-02-15T08:13:46;11.93;;;6.90;;
6902;SDS011;20232;49.408;8.702;2024-02-15T08:16:18;8.53;;;6.17;;
6902;SDS011;20232;49.408;8.702;2024-02-15T08:18:44;9.97;;;5.80;;
6902;SDS011;20232;49.408;8.702;2024-02-15T08:21:11;7.57;;;5.33;;
6902;SDS011;20232;49.408;8.702;2024-02-15T08:23:36;6.93;;;5.03;;
6902;SDS011;20232;49.408;8.702;2024-02-15T08:26:02;9.27;;;5.30;;
6902;SDS011;20232;49.408;8.702;2024-02-15T08:28:28;6.83;;;5.73;;
6902;SDS011;20232;49.408;8.702;2024-02-15T08:30:56;6.53;;;5.57;;
6902;SDS011;20232;49.408;8.702;2024-02-15T08:33:22;6.87;;;5.50;;
6902;SDS011;20232;49.408;8.702;2024-02-15T08:35:48;8.93;;;6.17;;
6902;SDS011;20232;49.408;8.702;2024-02-15T08:38:14;13.67;;;6.53;;
6902;SDS011;20232;49.408;8.702;2024-02-15T08:40:39;7.10;;;6.10;;
6902;SDS011;20232;49.408;8.702;2024-02-15T08:43:04;8.73;;;6.10;;
6902;SDS011;20232;49.408;8.702;2024-02-15T08:45:31;9.37;;;6.23;;
6902;SDS011;20232;49.408;8.702;2024-02-15T08:47:56;7.80;;;5.07;;
6902;SDS011;20232;49.408;8.702;2024-02-15T08:50:21;6.03;;;5.03;;
6902;SDS011;20232;49.408;8.702;2024-02-15T08:52:48;6.73;;;5.43;;
6902;SDS011;20232;49.408;8.702;2024-02-15T08:55:14;8.50;;;5.30;;
6902;SDS011;20232;49.408;8.702;2024-02-15T08:57:40;8.50;;;5.90;;
6902;SDS011;20232;49.408;8.702;2024-02-15T09:00:07;8.37;;;5.13;;
6902;SDS011;20232;49.408;8.702;2024-02-15T09:02:45;10.97;;;4.90;;
6902;SDS011;20232;49.408;8.702;2024-02-15T09:05:11;4.97;;;4.47;;
6902;SDS011;20232;49.408;8.702;2024-02-15T09:07:48;6.50;;;4.87;;
6902;SDS011;20232;49.408;8.702;2024-02-15T09:10:16;7.53;;;4.70;;
6902;SDS011;20232;49.408;8.702;2024-02-15T09:12:44;7.13;;;4.70;;
6902;SDS011;20232;49.408;8.702;2024-02-15T09:15:13;6.40;;;4.27;;
6902;SDS011;20232;49.408;8.702;2024-02-15T09:17:39;5.77;;;4.13;;
6902;SDS011;20232;49.408;8.702;2024-02-15T09:22:32;5.60;;;3.87;;
6902;SDS011;20232;49.408;8.702;2024-02-15T09:24:58;5.37;;;3.67;;
6902;SDS011;20232;49.408;8.702;2024-02-15T09:27:23;7.20;;;3.83;;
6902;SDS011;20232;49.408;8.702;2024-02-15T09:29:49;5.07;;;3.50;;
6902;SDS011;20232;49.408;8.702;2024-02-15T09:32:14;6.30;;;3.03;;
6902;SDS011;20232;49.408;8.702;2024-02-15T09:34:40;3.10;;;2.30;;
6902;SDS011;20232;49.408;8.702;2024-02-15T09:37:05;4.10;;;2.63;;
6902;SDS011;20232;49.408;8.702;2024-02-15T09:39:31;5.83;;;2.50;;
6902;SDS011;20232;49.408;8.702;2024-02-15T09:41:56;3.93;;;1.93;;
6902;SDS011;20232;49.408;8.702;2024-02-15T09:44:24;4.43;;;2.10;;
6902;SDS011;20232;49.408;8.702;2024-02-15T09:47:13;4.33;;;2.43;;
6902;SDS011;20232;49.408;8.702;2024-02-15T09:49:38;2.97;;;1.90;;
6902;SDS011;20232;49.408;8.702;2024-02-15T09:52:07;3.53;;;2.43;;
6902;SDS011;20232;49.408;8.702;2024-02-15T09:54:41;4.60;;;2.10;;
6902;SDS011;20232;49.408;8.702;2024-02-15T09:57:10;3.37;;;2.03;;
6902;SDS011;20232;49.408;8.702;2024-02-15T09:59:36;2.20;;;2.00;;
6902;SDS011;20232;49.408;8.702;2024-02-15T10:02:02;4.37;;;1.97;;
6902;SDS011;20232;49.408;8.702;2024-02-15T10:04:28;2.60;;;2.10;;
6902;SDS011;20232;49.408;8.702;2024-02-15T10:06:54;3.27;;;2.00;;
6902;SDS011;20232;49.408;8.702;2024-02-15T10:09:29;3.17;;;2.10;;
6902;SDS011;20232;49.408;8.702;2024-02-15T10:11:58;3.13;;;2.17;;
6902;SDS011;20232;49.408;8.702;2024-02-15T10:14:25;4.40;;;2.40;;
6902;SDS011;20232;49.408;8.702;2024-02-15T10:16:52;3.37;;;1.97;;
6902;SDS011;20232;49.408;8.702;2024-02-15T10:19:19;3.80;;;2.20;;
6902;SDS011;20232;49.408;8.702;2024-02-15T10:21:50;4.13;;;2.97;;
6902;SDS011;20232;49.408;8.702;2024-02-15T10:24:17;5.67;;;2.90;;
6902;SDS011;20232;49.408;8.702;2024-02-15T10:26:44;5.53;;;2.27;;
6902;SDS011;20232;49.408;8.702;2024-02-15T10:29:13;5.90;;;2.43;;
6902;SDS011;20232;49.408;8.702;2024-02-15T10:31:40;3.43;;;2.37;;
6902;SDS011;20232;49.408;8.702;2024-02-15T10:34:20;5.33;;;2.30;;
6902;SDS011;20232;49.408;8.702;2024-02-15T10:36:46;3.77;;;2.23;;
6902;SDS011;20232;49.408;8.702;2024-02-15T10:39:15;3.93;;;2.40;;
6902;SDS011;20232;49.408;8.702;2024-02-15T10:41:51;3.60;;;2.80;;
6902;SDS011;20232;49.408;8.702;2024-02-15T10:44:24;5.23;;;2.43;;
6902;SDS011;20232;49.408;8.702;2024-02-15T10:46:51;4.27;;;2.50;;
6902;SDS011;20232;49.408;8.702;2024-02-15T10:49:18;5.97;;;2.20;;
6902;SDS011;20232;49.408;8.702;2024-02-15T10:51:44;4.60;;;2.10;;
6902;SDS011;20232;49.408;8.702;2024-02-15T10:54:12;3.73;;;2.00;;
6902;SDS011;20232;49.408;8.702;2024-02-15T10:56:42;4.83;;;2.00;;
6902;SDS011;20232;49.408;8.702;2024-02-15T10:59:18;4.40;;;1.97;;
6902;SDS011;20232;49.408;8.702;2024-02-15T11:01:45;3.03;;;1.80;;
6902;SDS011;20232;49.408;8.702;2024-02-15T11:04:15;3.07;;;1.93;;
6902;SDS011;20232;49.408;8.702;2024-02-15T11:06:47;3.63;;;1.80;;
6902;SDS011;20232;49.408;8.702;2024-02-15T11:09:15;4.77;;;2.47;;
6902;SDS011;20232;49.408;8.702;2024-02-15T11:11:41;4.57;;;2.07;;
6902;SDS011;20232;49.408;8.702;2024-02-15T11:16:52;5.50;;;2.67;;
6902;SDS011;20232;49.408;8.702;2024-02-15T11:22:07;5.43;;;2.17;;
6902;SDS011;20232;49.408;8.702;2024-02-15T11:24:35;4.50;;;1.80;;
6902;SDS011;20232;49.408;8.702;2024-02-15T11:27:02;3.00;;;2.07;;
6902;SDS011;20232;49.408;8.702;2024-02-15T11:32:44;5.80;;;2.33;;
6902;SDS011;20232;49.408;8.702;2024-02-15T11:35:16;2.37;;;1.93;;
6902;SDS011;20232;49.408;8.702;2024-02-15T11:40:20;3.13;;;1.63;;
6902;SDS011;20232;49.408;8.702;2024-02-15T11:45:20;3.20;;;1.83;;
6902;SDS011;20232;49.408;8.702;2024-02-15T11:47:49;2.77;;;1.57;;
6902;SDS011;20232;49.408;8.702;2024-02-15T11:50:16;4.47;;;2.03;;
6902;SDS011;20232;49.408;8.702;2024-02-15T11:52:43;2.73;;;1.47;;
6902;SDS011;20232;49.408;8.702;2024-02-15T11:55:09;4.27;;;1.90;;
6902;SDS011;20232;49.408;8.702;2024-02-15T11:57:40;3.90;;;1.97;;
6902;SDS011;20232;49.408;8.702;2024-02-15T12:00:25;5.83;;;1.70;;
6902;SDS011;20232;49.408;8.702;2024-02-15T12:03:09;2.33;;;1.70;;
6902;SDS011;20232;49.408;8.702;2024-02-15T12:05:54;4.77;;;2.00;;
6902;SDS011;20232;49.408;8.702;2024-02-15T12:08:38;2.60;;;1.70;;
6902;SDS011;20232;49.408;8.702;2024-02-15T12:11:22;2.77;;;1.63;;
6902;SDS011;20232;49.408;8.702;2024-02-15T12:14:06;5.07;;;1.97;;
6902;SDS011;20232;49.408;8.702;2024-02-15T12:17:00;4.47;;;1.97;;
6902;SDS011;20232;49.408;8.702;2024-02-15T12:19:48;3.23;;;1.90;;
6902;SDS011;20232;49.408;8.702;2024-02-15T12:22:32;3.07;;;1.70;;
6902;SDS011;20232;49.408;8.702;2024-02-15T12:24:59;2.87;;;1.70;;
6902;SDS011;20232;49.408;8.702;2024-02-15T12:27:43;3.53;;;2.17;;
6902;SDS011;20232;49.408;8.702;2024-02-15T12:30:15;5.37;;;2.90;;
6902;SDS011;20232;49.408;8.702;2024-02-15T12:32:45;4.93;;;2.57;;
6902;SDS011;20232;49.408;8.702;2024-02-15T12:35:13;4.00;;;1.73;;
6902;SDS011;20232;49.408;8.702;2024-02-15T12:40:30;4.43;;;2.10;;
6902;SDS011;20232;49.408;8.702;2024-02-15T12:42:56;2.13;;;1.70;;
6902;SDS011;20232;49.408;8.702;2024-02-15T12:45:24;4.10;;;1.97;;
6902;SDS011;20232;49.408;8.702;2024-02-15T12:47:53;2.07;;;1.70;;
6902;SDS011;20232;49.408;8.702;2024-02-15T12:50:19;2.37;;;1.60;;
6902;SDS011;20232;49.408;8.702;2024-02-15T12:52:47;2.90;;;1.63;;
6902;SDS011;20232;49.408;8.702;2024-02-15T12:55:13;4.00;;;1.43;;
6902;SDS011;20232;49.408;8.702;2024-02-15T12:57:40;5.27;;;1.80;;
6902;SDS011;20232;49.408;8.702;2024-02-15T13:00:08;3.07;;;2.00;;
6902;SDS011;20232;49.408;8.702;2024-02-15T13:02:38;3.17;;;1.50;;
6902;SDS011;20232;49.408;8.702;2024-02-15T13:05:04;3.83;;;2.07;;
6902;SDS011;20232;49.408;8.702;2024-02-15T13:07:30;4.97;;;2.10;;
6902;SDS011;20232;49.408;8.702;2024-02-15T13:09:56;8.87;;;2.40;;
6902;SDS011;20232;49.408;8.702;2024-02-15T13:12:22;5.37;;;1.93;;
6902;SDS011;20232;49.408;8.702;2024-02-15T13:14:48;7.83;;;2.40;;
6902;SDS011;20232;49.408;8.702;2024-02-15T13:17:15;6.20;;;1.90;;
6902;SDS011;20232;49.408;8.702;2024-02-15T13:19:48;2.47;;;1.63;;
6902;SDS011;20232;49.408;8.702;2024-02-15T13:22:14;3.77;;;2.00;;
6902;SDS011;20232;49.408;8.702;2024-02-15T13:24:41;3.00;;;1.30;;
6902;SDS011;20232;49.408;8.702;2024-02-15T13:27:07;3.93;;;1.90;;
6902;SDS011;20232;49.408;8.702;2024-02-15T13:29:37;5.67;;;1.40;;
6902;SDS011;20232;49.408;8.702;2024-02-15T13:32:05;3.23;;;1.40;;
6902;SDS011;20232;49.408;8.702;2024-02-15T13:34:31;2.93;;;1.70;;
6902;SDS011;20232;49.408;8.702;2024-02-15T13:36:58;1.87;;;1.50;;
6902;SDS011;20232;49.408;8.702;2024-02-15T13:39:26;2.33;;;1.30;;
6902;SDS011;20232;49.408;8.702;2024-02-15T13:41:58;3.63;;;1.60;;
6902;SDS011;20232;49.408;8.702;2024-02-15T13:44:26;3.03;;;1.70;;
6902;SDS011;20232;49.408;8.702;2024-02-15T13:46:52;3.43;;;1.50;;
6902;SDS011;20232;49.408;8.702;2024-02-15T13:49:20;3.50;;;1.40;;
6902;SDS011;20232;49.408;8.702;2024-02-15T13:51:46;2.50;;;1.40;;
6902;SDS011;20232;49.408;8.702;2024-02-15T13:54:12;2.83;;;1.50;;
6902;SDS011;20232;49.408;8.702;2024-02-15T13:56:37;2.47;;;1.40;;
6902;SDS011;20232;49.408;8.702;2024-02-15T13:59:04;5.60;;;1.50;;
6902;SDS011;20232;49.408;8.702;2024-02-15T14:01:30;1.47;;;1.30;;
6902;SDS011;20232;49.408;8.702;2024-02-15T14:03:56;4.00;;;1.50;;
6902;SDS011;20232;49.408;8.702;2024-02-15T14:06:21;3.73;;;1.43;;
6902;SDS011;20232;49.408;8.702;2024-02-15T14:08:46;2.90;;;1.57;;
6902;SDS011;20232;49.408;8.702;2024-02-15T14:11:12;2.27;;;1.23;;
6902;SDS011;20232;49.408;8.702;2024-02-15T14:13:38;1.77;;;1.30;;
6902;SDS011;20232;49.408;8.702;2024-02-15T14:16:04;3.10;;;1.60;;
6902;SDS011;20232;49.408;8.702;2024-02-15T14:18:30;2.33;;;1.30;;
6902;SDS011;20232;49.408;8.702;2024-02-15T14:20:56;3.03;;;1.63;;
6902;SDS011;20232;49.408;8.702;2024-02-15T14:23:21;3.73;;;1.53;;
6902;SDS011;20232;49.408;8.702;2024-02-15T14:25:47;2.20;;;1.63;;
6902;SDS011;20232;49.408;8.702;2024-02-15T14:28:15;3.43;;;1.70;;
6902;SDS011;20232;49.408;8.702;2024-02-15T14:30:40;2.83;;;1.60;;
6902;SDS011;20232;49.408;8.702;2024-02-15T14:33:24;3.10;;;1.30;;
6902;SDS011;20232;49.408;8.702;2024-02-15T14:35:50;2.97;;;1.30;;
6902;SDS011;20232;49.408;8.702;2024-02-15T14:38:18;3.00;;;1.30;;
6902;SDS011;20232;49.408;8.702;2024-02-15T14:40:46;3.17;;;1.40;;
6902;SDS011;20232;49.408;8.702;2024-02-15T14:43:23;3.37;;;1.80;;
6902;SDS011;20232;49.408;8.702;2024-02-15T14:45:50;1.47;;;1.30;;
6902;SDS011;20232;49.408;8.702;2024-02-15T14:48:16;2.40;;;1.33;;
6902;SDS011;20232;49.408;8.702;2024-02-15T14:50:45;3.53;;;1.40;;
6902;SDS011;20232;49.408;8.702;2024-02-15T14:53:11;3.63;;;1.50;;
6902;SDS011;20232;49.408;8.702;2024-02-15T14:55:38;3.00;;;1.50;;
6902;SDS011;20232;49.408;8.702;2024-02-15T14:58:13;2.27;;;1.60;;
6902;SDS011;20232;49.408;8.702;2024-02-15T15:00:38;2.70;;;1.47;;
6902;SDS011;20232;49.408;8.702;2024-02-15T15:03:06;4.63;;;1.90;;
6902;SDS011;20232;49.408;8.702;2024-02-15T15:05:32;2.87;;;1.80;;
6902;SDS011;20232;49.408;8.702;2024-02-15T15:08:16;3.53;;;1.50;;
6902;SDS011;20232;49.408;8.702;2024-02-15T15:11:00;2.63;;;1.50;;
6902;SDS011;20232;49.408;8.702;2024-02-15T15:13:44;3.60;;;1.40;;
6902;SDS011;20232;49.408;8.702;2024-02-15T15:16:09;2.80;;;1.50;;
6902;SDS011;20232;49.408;8.702;2024-02-15T15:18:39;1.93;;;1.70;;
6902;SDS011;20232;49.408;8.702;2024-02-15T15:21:05;2.80;;;1.43;;
6902;SDS011;20232;49.408;8.702;2024-02-15T15:23:30;1.37;;;1.23;;
6902;SDS011;20232;49.408;8.702;2024-02-15T15:25:59;4.00;;;1.60;;
6902;SDS011;20232;49.408;8.702;2024-02-15T15:28:26;2.07;;;1.33;;
6902;SDS011;20232;49.408;8.702;2024-02-15T15:30:52;2.20;;;1.50;;
6902;SDS011;20232;49.408;8.702;2024-02-15T15:33:18;5.37;;;1.67;;
6902;SDS011;20232;49.408;8.702;2024-02-15T15:35:44;2.20;;;1.30;;
6902;SDS011;20232;49.408;8.702;2024-02-15T15:38:10;3.43;;;1.33;;
6902;SDS011;20232;49.408;8.702;2024-02-15T15:40:35;2.73;;;1.30;;
6902;SDS011;20232;49.408;8.702;2024-02-15T15:43:01;3.57;;;1.40;;
6902;SDS011;20232;49.408;8.702;2024-02-15T15:45:28;2.90;;;1.40;;
6902;SDS011;20232;49.408;8.702;2024-02-15T15:47:53;2.17;;;1.30;;
6902;SDS011;20232;49.408;8.702;2024-02-15T15:50:19;2.40;;;1.43;;
6902;SDS011;20232;49.408;8.702;2024-02-15T15:52:45;2.07;;;1.23;;
6902;SDS011;20232;49.408;8.702;2024-02-15T15:55:10;1.37;;;1.20;;
6902;SDS011;20232;49.408;8.702;2024-02-15T15:57:39;5.80;;;1.70;;
6902;SDS011;20232;49.408;8.702;2024-02-15T16:00:06;4.53;;;1.57;;
6902;SDS011;20232;49.408;8.702;2024-02-15T16:02:44;2.67;;;1.30;;
6902;SDS011;20232;49.408;8.702;2024-02-15T16:05:13;3.00;;;1.40;;
6902;SDS011;20232;49.408;8.702;2024-02-15T16:07:41;2.27;;;1.20;;
6902;SDS011;20232;49.408;8.702;2024-02-15T16:10:07;2.03;;;1.60;;
6902;SDS011;20232;49.408;8.702;2024-02-15T16:12:36;1.70;;;1.33;;
6902;SDS011;20232;49.408;8.702;2024-02-15T16:15:02;1.40;;;1.30;;
6902;SDS011;20232;49.408;8.702;2024-02-15T16:17:31;4.13;;;1.43;;
6902;SDS011;20232;49.408;8.702;2024-02-15T16:20:17;2.37;;;1.40;;
6902;SDS011;20232;49.408;8.702;2024-02-15T16:22:43;1.60;;;1.30;;
6902;SDS011;20232;49.408;8.702;2024-02-15T16:25:09;3.03;;;1.57;;
6902;SDS011;20232;49.408;8.702;2024-02-15T16:27:36;3.30;;;1.43;;
6902;SDS011;20232;49.408;8.702;2024-02-15T16:30:02;4.87;;;1.20;;
6902;SDS011;20232;49.408;8.702;2024-02-15T16:32:29;2.03;;;1.50;;
6902;SDS011;20232;49.408;8.702;2024-02-15T16:34:56;3.23;;;1.70;;
6902;SDS011;20232;49.408;8.702;2024-02-15T16:37:25;4.00;;;1.83;;
6902;SDS011;20232;49.408;8.702;2024-02-15T16:39:51;2.87;;;1.50;;
6902;SDS011;20232;49.408;8.702;2024-02-15T16:42:17;4.80;;;1.83;;
6902;SDS011;20232;49.408;8.702;2024-02-15T16:44:43;5.23;;;1.77;;
6902;SDS011;20232;49.408;8.702;2024-02-15T16:47:12;2.33;;;1.40;;
6902;SDS011;20232;49.408;8.702;2024-02-15T16:49:38;5.37;;;2.00;;
6902;SDS011;20232;49.408;8.702;2024-02-15T16:52:04;1.93;;;1.60;;
6902;SDS011;20232;49.408;8.702;2024-02-15T16:54:30;2.87;;;1.77;;
6902;SDS011;20232;49.408;8.702;2024-02-15T16:56:55;2.50;;;1.67;;
6902;SDS011;20232;49.408;8.702;2024-02-15T16:59:23;4.90;;;2.30;;
6902;SDS011;20232;49.408;8.702;2024-02-15T17:01:48;4.60;;;2.50;;
6902;SDS011;20232;49.408;8.702;2024-02-15T17:04:14;6.37;;;2.07;;
6902;SDS011;20232;49.408;8.702;2024-02-15T17:06:41;4.17;;;2.30;;
6902;SDS011;20232;49.408;8.702;2024-02-15T17:09:07;2.33;;;2.00;;
6902;SDS011;20232;49.408;8.702;2024-02-15T17:11:32;5.50;;;2.43;;
6902;SDS011;20232;49.408;8.702;2024-02-15T17:13:57;4.60;;;2.07;;
6902;SDS011;20232;49.408;8.702;2024-02-15T17:16:26;4.63;;;2.23;;
6902;SDS011;20232;49.408;8.702;2024-02-15T17:18:53;5.37;;;2.73;;
6902;SDS011;20232;49.408;8.702;2024-02-15T17:21:18;5.17;;;2.83;;
6902;SDS011;20232;49.408;8.702;2024-02-15T17:23:44;3.63;;;2.20;;
6902;SDS011;20232;49.408;8.702;2024-02-15T17:26:11;2.30;;;1.67;;
6902;SDS011;20232;49.408;8.702;2024-02-15T17:28:39;5.70;;;2.30;;
6902;SDS011;20232;49.408;8.702;2024-02-15T17:31:05;5.93;;;2.10;;
6902;SDS011;20232;49.408;8.702;2024-02-15T17:33:42;5.43;;;1.93;;
6902;SDS011;20232;49.408;8.702;2024-02-15T17:36:08;5.47;;;1.87;;
6902;SDS011;20232;49.408;8.702;2024-02-15T17:38:34;4.43;;;1.90;;
6902;SDS011;20232;49.408;8.702;2024-02-15T17:41:01;2.57;;;1.80;;
6902;SDS011;20232;49.408;8.702;2024-02-15T17:43:28;3.57;;;2.20;;
6902;SDS011;20232;49.408;8.702;2024-02-15T17:45:54;4.83;;;2.00;;
6902;SDS011;20232;49.408;8.702;2024-02-15T17:48:20;4.07;;;2.00;;
6902;SDS011;20232;49.408;8.702;2024-02-15T17:50:46;6.00;;;3.07;;
6902;SDS011;20232;49.408;8.702;2024-02-15T17:53:12;7.93;;;3.60;;
6902;SDS011;20232;49.408;8.702;2024-02-15T17:55:37;5.13;;;2.23;;
6902;SDS011;20232;49.408;8.702;2024-02-15T17:58:03;4.57;;;2.10;;
6902;SDS011;20232;49.408;8.702;2024-02-15T18:00:30;4.20;;;2.00;;
6902;SDS011;20232;49.408;8.702;2024-02-15T18:02:55;2.93;;;2.20;;
6902;SDS011;20232;49.408;8.702;2024-02-15T18:05:22;6.50;;;2.40;;
6902;SDS011;20232;49.408;8.702;2024-02-15T18:07:47;4.47;;;2.00;;
6902;SDS011;20232;49.408;8.702;2024-02-15T18:10:13;5.13;;;2.20;;
6902;SDS011;20232;49.408;8.702;2024-02-15T18:12:42;3.10;;;2.23;;
6902;SDS011;20232;49.408;8.702;2024-02-15T18:15:07;6.93;;;2.07;;
6902;SDS011;20232;49.408;8.702;2024-02-15T18:17:59;3.43;;;2.07;;
6902;SDS011;20232;49.408;8.702;2024-02-15T18:20:25;4.10;;;2.10;;
6902;SDS011;20232;49.408;8.702;2024-02-15T18:22:51;3.97;;;2.30;;
6902;SDS011;20232;49.408;8.702;2024-02-15T18:25:17;3.27;;;2.13;;
6902;SDS011;20232;49.408;8.702;2024-02-15T18:27:42;4.47;;;2.33;;
6902;SDS011;20232;49.408;8.702;2024-02-15T18:30:08;3.47;;;2.50;;
6902;SDS011;20232;49.408;8.702;2024-02-15T18:32:35;3.30;;;2.10;;
6902;SDS011;20232;49.408;8.702;2024-02-15T18:35:02;3.10;;;2.07;;
6902;SDS011;20232;49.408;8.702;2024-02-15T18:37:37;5.30;;;2.20;;
6902;SDS011;20232;49.408;8.702;2024-02-15T18:40:03;3.83;;;1.90;;
6902;SDS011;20232;49.408;8.702;2024-02-15T18:42:35;3.30;;;2.40;;
6902;SDS011;20232;49.408;8.702;2024-02-15T18:45:04;4.60;;;2.30;;
6902;SDS011;20232;49.408;8.702;2024-02-15T18:47:31;5.00;;;2.43;;
6902;SDS011;20232;49.408;8.702;2024-02-15T18:49:57;5.93;;;2.50;;
6902;SDS011;20232;49.408;8.702;2024-02-15T18:52:24;5.13;;;2.43;;
6902;SDS011;20232;49.408;8.702;2024-02-15T18:54:49;5.67;;;2.23;;
6902;SDS011;20232;49.408;8.702;2024-02-15T18:57:17;7.20;;;2.33;;
6902;SDS011;20232;49.408;8.702;2024-02-15T18:59:45;5.87;;;2.10;;
6902;SDS011;20232;49.408;8.702;2024-02-15T19:02:11;3.63;;;2.47;;
6902;SDS011;20232;49.408;8.702;2024-02-15T19:04:39;3.93;;;2.23;;
6902;SDS011;20232;49.408;8.702;2024-02-15T19:07:05;4.57;;;2.10;;
6902;SDS011;20232;49.408;8.702;2024-02-15T19:09:30;7.50;;;3.07;;
6902;SDS011;20232;49.408;8.702;2024-02-15T19:11:57;5.43;;;2.40;;
6902;SDS011;20232;49.408;8.702;2024-02-15T19:14:24;3.67;;;2.50;;
6902;SDS011;20232;49.408;8.702;2024-02-15T19:16:50;2.80;;;2.00;;
6902;SDS011;20232;49.408;8.702;2024-02-15T19:19:15;3.40;;;2.00;;
6902;SDS011;20232;49.408;8.702;2024-02-15T19:21:45;3.30;;;2.13;;
6902;SDS011;20232;49.408;8.702;2024-02-15T19:24:10;3.70;;;1.50;;
6902;SDS011;20232;49.408;8.702;2024-02-15T19:26:36;5.40;;;1.80;;
6902;SDS011;20232;49.408;8.702;2024-02-15T19:29:05;5.93;;;2.10;;
6902;SDS011;20232;49.408;8.702;2024-02-15T19:31:32;5.23;;;2.47;;
6902;SDS011;20232;49.408;8.702;2024-02-15T19:33:58;2.07;;;1.80;;
6902;SDS011;20232;49.408;8.702;2024-02-15T19:36:25;2.77;;;2.10;;
6902;SDS011;20232;49.408;8.702;2024-02-15T19:38:51;2.73;;;2.30;;
6902;SDS011;20232;49.408;8.702;2024-02-15T19:41:17;3.50;;;2.23;;
6902;SDS011;20232;49.408;8.702;2024-02-15T19:43:42;4.07;;;2.43;;
6902;SDS011;20232;49.408;8.702;2024-02-15T19:46:07;5.53;;;2.60;;
6902;SDS011;20232;49.408;8.702;2024-02-15T19:48:33;4.43;;;2.77;;
6902;SDS011;20232;49.408;8.702;2024-02-15T19:50:59;26.03;;;3.03;;
6902;SDS011;20232;49.408;8.702;2024-02-15T19:53:24;4.27;;;3.37;;
6902;SDS011;20232;49.408;8.702;2024-02-15T19:55:50;4.53;;;2.77;;
6902;SDS011;20232;49.408;8.702;2024-02-15T19:58:15;4.13;;;2.80;;
6902;SDS011;20232;49.408;8.702;2024-02-15T20:00:41;3.43;;;2.30;;
6902;SDS011;20232;49.408;8.702;2024-02-15T20:03:06;3.93;;;2.17;;
6902;SDS011;20232;49.408;8.702;2024-02-15T20:05:32;3.07;;;2.37;;
6902;SDS011;20232;49.408;8.702;2024-02-15T20:07:58;4.47;;;2.27;;
6902;SDS011;20232;49.408;8.702;2024-02-15T20:10:23;4.70;;;2.60;;
6902;SDS011;20232;49.408;8.702;2024-02-15T20:12:49;4.23;;;1.93;;
6902;SDS011;20232;49.408;8.702;2024-02-15T20:15:14;2.80;;;2.17;;
6902;SDS011;20232;49.408;8.702;2024-02-15T20:17:40;3.57;;;2.40;;
6902;SDS011;20232;49.408;8.702;2024-02-15T20:20:05;3.43;;;2.43;;
6902;SDS011;20232;49.408;8.702;2024-02-15T20:22:33;5.07;;;2.30;;
6902;SDS011;20232;49.408;8.702;2024-02-15T20:24:58;5.27;;;2.40;;